createdAt,value
2023-06-18T00:02:13.956Z,22.20
2023-06-18T00:04:41.679Z,21.20
2023-06-18T00:07:09.988Z,23.90
2023-06-18T00:09:38.076Z,23.70
2023-06-18T00:12:06.508Z,25.00
2023-06-18T00:14:34.784Z,25.70
2023-06-18T00:17:02.720Z,25.50
2023-06-18T00:19:31.493Z,26.70
2023-06-18T00:22:00.985Z,27.90
2023-06-18T00:24:29.059Z,28.70
2023-06-18T00:26:57.022Z,28.50
2023-06-18T00:29:25.077Z,27.40
2023-06-18T00:31:53.058Z,30.50
2023-06-18T00:34:22.035Z,30.10
2023-06-18T00:36:52.091Z,31.90
2023-06-18T00:39:20.226Z,31.90
2023-06-18T00:41:48.335Z,32.20
2023-06-18T00:44:16.458Z,30.70
2023-06-18T00:46:48.120Z,24.80
2023-06-18T00:49:20.489Z,29.60
2023-06-18T00:54:18.575Z,28.60
2023-06-18T00:56:53.725Z,24.50
2023-06-18T00:59:24.105Z,25.10
2023-06-18T01:01:56.533Z,24.00
2023-06-18T01:04:28.774Z,28.40
2023-06-18T01:06:57.540Z,28.20
2023-06-18T01:09:27.038Z,31.10
2023-06-18T01:11:55.470Z,33.40
2023-06-18T01:14:24.408Z,34.30
2023-06-18T01:16:52.850Z,31.80
2023-06-18T01:19:53.373Z,30.20
2023-06-18T01:22:31.673Z,28.70
2023-06-18T01:25:00.377Z,26.20
2023-06-18T01:27:29.341Z,25.50
2023-06-18T01:29:57.916Z,21.60
2023-06-18T01:32:26.024Z,19.50
2023-06-18T01:34:57.235Z,20.10
2023-06-18T01:37:45.783Z,22.50
2023-06-18T01:40:27.500Z,24.40
2023-06-18T01:43:19.168Z,21.40
2023-06-18T01:45:48.636Z,20.90
2023-06-18T01:48:16.847Z,19.70
2023-06-18T01:50:46.273Z,16.70
2023-06-18T01:53:17.210Z,18.40
2023-06-18T01:55:46.253Z,16.00
2023-06-18T01:58:16.832Z,14.20
2023-06-18T02:00:44.999Z,13.20
2023-06-18T02:03:12.896Z,14.10
2023-06-18T02:05:40.776Z,13.50
2023-06-18T02:08:08.685Z,22.20
2023-06-18T02:10:36.784Z,24.10
2023-06-18T02:13:04.753Z,21.20
2023-06-18T02:15:32.582Z,21.80
2023-06-18T02:18:00.574Z,25.90
2023-06-18T02:20:28.787Z,26.30
2023-06-18T02:22:56.927Z,23.30
2023-06-18T02:25:30.460Z,26.70
2023-06-18T02:28:00.406Z,24.90
2023-06-18T02:30:31.354Z,26.40
2023-06-18T02:33:02.648Z,38.90
2023-06-18T02:35:30.710Z,42.20
2023-06-18T02:37:58.596Z,41.90
2023-06-18T02:40:27.152Z,39.10
2023-06-18T02:42:56.425Z,34.80
2023-06-18T02:45:26.046Z,30.60
2023-06-18T02:47:54.279Z,30.80
2023-06-18T02:50:22.693Z,26.30
2023-06-18T02:52:51.744Z,29.00
2023-06-18T02:55:19.970Z,35.80
2023-06-18T02:57:47.951Z,39.70
2023-06-18T03:00:16.190Z,37.60
2023-06-18T03:02:45.785Z,32.90
2023-06-18T03:05:22.543Z,35.40
2023-06-18T03:07:52.401Z,34.50
2023-06-18T03:10:20.875Z,34.80
2023-06-18T03:12:50.788Z,37.50
2023-06-18T03:15:25.528Z,34.20
2023-06-18T03:17:53.332Z,32.40
2023-06-18T03:20:21.701Z,30.10
2023-06-18T03:25:21.800Z,36.20
2023-06-18T03:27:49.881Z,40.20
2023-06-18T03:30:18.823Z,51.80
2023-06-18T03:32:47.581Z,50.20
2023-06-18T03:35:16.439Z,47.30
2023-06-18T03:37:44.962Z,60.60
2023-06-18T03:40:14.174Z,59.30
2023-06-18T03:42:42.765Z,54.70
2023-06-18T03:45:11.750Z,45.80
2023-06-18T03:47:39.773Z,35.90
2023-06-18T03:50:08.381Z,30.80
2023-06-18T03:52:36.599Z,29.40
2023-06-18T03:55:05.626Z,27.10
2023-06-18T03:57:34.171Z,29.90
2023-06-18T04:00:02.515Z,27.90
2023-06-18T04:02:40.565Z,28.50
2023-06-18T04:05:10.342Z,29.60
2023-06-18T04:07:38.628Z,62.80
2023-06-18T04:10:07.418Z,52.90
2023-06-18T04:12:35.404Z,63.20
2023-06-18T04:15:04.153Z,30.40
2023-06-18T04:17:42.954Z,22.30
2023-06-18T04:20:13.634Z,21.20
2023-06-18T04:22:41.988Z,20.80
2023-06-18T04:25:11.308Z,20.20
2023-06-18T04:27:40.883Z,19.00
2023-06-18T04:30:09.516Z,14.60
2023-06-18T04:32:39.271Z,13.60
2023-06-18T04:35:07.793Z,19.10
2023-06-18T04:37:37.732Z,17.00
2023-06-18T04:40:06.940Z,22.80
2023-06-18T04:42:36.547Z,24.80
2023-06-18T04:45:05.428Z,24.50
2023-06-18T04:47:34.150Z,26.60
2023-06-18T04:50:03.838Z,24.70
2023-06-18T04:52:32.608Z,25.70
2023-06-18T04:55:00.709Z,24.80
2023-06-18T04:57:29.180Z,29.20
2023-06-18T04:59:57.557Z,32.60
2023-06-18T05:02:26.248Z,29.80
2023-06-18T05:04:54.224Z,30.70
2023-06-18T05:07:22.772Z,31.00
2023-06-18T05:09:51.156Z,35.20
2023-06-18T05:12:19.201Z,32.60
2023-06-18T05:14:47.568Z,36.30
2023-06-18T05:17:15.612Z,38.30
2023-06-18T05:19:43.696Z,33.80
2023-06-18T05:22:11.761Z,33.80
2023-06-18T05:24:41.503Z,29.60
2023-06-18T05:27:09.623Z,28.40
2023-06-18T05:29:39.205Z,24.90
2023-06-18T05:32:08.503Z,20.90
2023-06-18T05:34:36.989Z,25.20
2023-06-18T05:37:05.602Z,20.50
2023-06-18T05:39:33.680Z,19.10
2023-06-18T05:42:01.693Z,17.00
2023-06-18T05:44:29.677Z,18.20
2023-06-18T05:46:57.744Z,21.00
2023-06-18T05:49:27.421Z,22.40
2023-06-18T05:51:55.584Z,16.70
2023-06-18T05:54:23.969Z,11.90
2023-06-18T05:56:53.140Z,13.80
2023-06-18T05:59:22.656Z,14.90
2023-06-18T06:01:56.502Z,11.80
2023-06-18T06:04:25.091Z,12.30
2023-06-18T06:06:53.169Z,11.10
2023-06-18T06:09:21.277Z,10.20
2023-06-18T06:11:49.715Z,9.70
2023-06-18T06:14:17.949Z,12.60
2023-06-18T06:16:47.066Z,11.90
2023-06-18T06:19:15.184Z,9.80
2023-06-18T06:21:43.061Z,9.40
2023-06-18T06:24:11.057Z,8.40
2023-06-18T06:26:38.880Z,9.70
2023-06-18T06:29:07.560Z,11.80
2023-06-18T06:31:35.501Z,12.70
2023-06-18T06:34:03.729Z,16.90
2023-06-18T06:36:31.759Z,18.00
2023-06-18T06:38:59.977Z,17.40
2023-06-18T06:41:28.147Z,15.90
2023-06-18T06:43:56.200Z,20.20
2023-06-18T06:46:43.048Z,14.00
2023-06-18T06:49:37.348Z,10.70
2023-06-18T06:52:25.899Z,8.80
2023-06-18T06:54:56.196Z,9.40
2023-06-18T06:57:24.537Z,8.00
2023-06-18T06:59:52.681Z,7.60
2023-06-18T07:02:20.641Z,9.80
2023-06-18T07:04:50.081Z,10.20
2023-06-18T07:07:18.166Z,7.80
2023-06-18T07:09:46.273Z,8.10
2023-06-18T07:12:14.309Z,7.50
2023-06-18T07:14:42.302Z,7.90
2023-06-18T07:17:10.368Z,7.50
2023-06-18T07:19:38.464Z,7.10
2023-06-18T07:22:06.357Z,9.30
2023-06-18T07:24:34.565Z,9.00
2023-06-18T07:27:03.185Z,8.00
2023-06-18T07:29:31.596Z,8.90
2023-06-18T07:32:00.267Z,7.40
2023-06-18T07:34:28.270Z,8.20
2023-06-18T07:36:56.662Z,8.60
2023-06-18T07:39:24.641Z,12.00
2023-06-18T07:41:53.142Z,10.50
2023-06-18T07:44:21.172Z,9.20
2023-06-18T07:46:49.604Z,9.30
2023-06-18T07:49:18.230Z,7.90
2023-06-18T07:51:46.278Z,7.50
2023-06-18T07:54:14.116Z,6.70
2023-06-18T07:56:42.002Z,8.60
2023-06-18T07:59:10.135Z,10.50
2023-06-18T08:01:38.134Z,9.20
2023-06-18T08:04:06.277Z,9.40
2023-06-18T08:06:34.187Z,8.50
2023-06-18T08:09:02.045Z,8.50
2023-06-18T08:11:30.125Z,6.80
2023-06-18T08:13:57.989Z,7.20
2023-06-18T08:16:26.787Z,6.60
2023-06-18T08:18:54.900Z,6.20
2023-06-18T08:21:23.565Z,7.10
2023-06-18T08:23:52.290Z,6.60
2023-06-18T08:26:20.676Z,8.10
2023-06-18T08:28:49.211Z,6.60
2023-06-18T08:31:17.127Z,7.20
2023-06-18T08:33:45.278Z,7.80
2023-06-18T08:36:13.250Z,7.30
2023-06-18T08:38:41.192Z,6.90
2023-06-18T08:41:11.234Z,6.90
2023-06-18T08:43:39.605Z,8.10
2023-06-18T08:46:12.776Z,9.60
2023-06-18T08:49:00.664Z,8.50
2023-06-18T08:51:28.624Z,8.20
2023-06-18T08:54:08.230Z,7.20
2023-06-18T08:56:38.844Z,6.50
2023-06-18T08:59:06.854Z,6.70
2023-06-18T09:01:34.824Z,8.70
2023-06-18T09:04:02.841Z,6.80
2023-06-18T09:06:30.903Z,6.40
2023-06-18T09:09:01.913Z,6.90
2023-06-18T09:11:36.717Z,6.30
2023-06-18T09:14:05.314Z,6.60
2023-06-18T09:16:33.408Z,6.30
2023-06-18T09:19:04.019Z,6.20
2023-06-18T09:24:10.939Z,7.60
2023-06-18T09:26:38.874Z,6.50
2023-06-18T09:29:07.156Z,6.50
2023-06-18T09:31:36.294Z,7.40
2023-06-18T09:34:24.662Z,6.80
2023-06-18T09:36:52.732Z,6.70
2023-06-18T09:39:24.001Z,6.10
2023-06-18T09:41:53.481Z,6.90
2023-06-18T09:44:22.301Z,6.50
2023-06-18T09:46:52.432Z,7.50
2023-06-18T09:49:21.296Z,7.20
2023-06-18T09:51:50.815Z,7.40
2023-06-18T09:54:19.189Z,8.80
2023-06-18T09:56:59.160Z,9.20
2023-06-18T09:59:27.539Z,7.10
2023-06-18T10:01:58.650Z,6.50
2023-06-18T10:04:27.126Z,7.60
2023-06-18T10:06:59.836Z,8.10
2023-06-18T10:09:36.694Z,6.10
2023-06-18T10:12:06.116Z,8.40
2023-06-18T10:14:34.660Z,10.30
2023-06-18T10:17:24.802Z,6.50
2023-06-18T10:20:10.577Z,6.70
2023-06-18T10:22:47.037Z,12.20
2023-06-18T10:25:15.133Z,9.60
2023-06-18T10:27:43.422Z,8.70
2023-06-18T10:30:12.284Z,6.50
2023-06-18T10:32:40.365Z,7.40
2023-06-18T10:35:09.878Z,6.40
2023-06-18T10:37:38.008Z,7.50
2023-06-18T10:40:06.919Z,6.50
2023-06-18T10:42:36.182Z,6.20
2023-06-18T10:45:12.401Z,6.40
2023-06-18T10:47:41.177Z,6.70
2023-06-18T10:50:09.298Z,7.00
2023-06-18T10:52:38.813Z,7.00
2023-06-18T10:55:17.063Z,7.00
2023-06-18T10:57:45.158Z,6.60
2023-06-18T11:00:16.988Z,8.00
2023-06-18T11:02:46.062Z,7.60
2023-06-18T11:05:37.836Z,6.50
2023-06-18T11:08:07.974Z,6.50
2023-06-18T11:10:39.802Z,6.90
2023-06-18T11:15:37.987Z,5.80
2023-06-18T11:18:06.001Z,6.30
2023-06-18T11:20:36.028Z,5.30
2023-06-18T11:23:05.357Z,6.30
2023-06-18T11:25:33.465Z,6.50
2023-06-18T11:28:03.635Z,7.60
2023-06-18T11:30:35.286Z,7.20
2023-06-18T11:33:03.782Z,6.60
2023-06-18T11:35:32.212Z,5.60
2023-06-18T11:38:00.749Z,7.60
2023-06-18T11:40:28.795Z,7.30
2023-06-18T11:42:56.921Z,10.30
2023-06-18T11:45:25.470Z,11.30
2023-06-18T11:47:54.500Z,9.80
2023-06-18T11:50:23.757Z,8.90
2023-06-18T11:52:52.047Z,7.80
2023-06-18T11:55:21.023Z,6.90
2023-06-18T11:57:49.153Z,8.10
2023-06-18T12:00:17.623Z,7.60
2023-06-18T12:02:46.301Z,8.80
2023-06-18T12:05:14.544Z,8.80
2023-06-18T12:07:44.220Z,9.40
2023-06-18T12:10:13.081Z,8.30
2023-06-18T12:13:03.685Z,8.90
2023-06-18T12:15:38.663Z,10.20
2023-06-18T12:18:14.294Z,7.10
2023-06-18T12:20:42.508Z,7.20
2023-06-18T12:23:11.768Z,8.10
2023-06-18T12:25:39.774Z,7.40
2023-06-18T12:28:08.461Z,7.20
2023-06-18T12:30:38.929Z,7.30
2023-06-18T12:33:11.338Z,7.10
2023-06-18T12:35:43.378Z,7.50
2023-06-18T12:38:11.770Z,11.20
2023-06-18T12:40:57.388Z,12.60
2023-06-18T12:43:25.532Z,11.50
2023-06-18T12:45:54.352Z,10.90
2023-06-18T12:48:26.652Z,9.60
2023-06-18T12:50:56.328Z,7.60
2023-06-18T12:53:26.081Z,7.50
2023-06-18T12:56:18.417Z,7.50
2023-06-18T13:01:15.123Z,6.80
2023-06-18T13:03:43.838Z,6.50
2023-06-18T13:06:12.926Z,6.00
2023-06-18T13:08:41.326Z,7.80
2023-06-18T13:11:09.418Z,8.80
2023-06-18T13:13:37.430Z,8.60
2023-06-18T13:16:05.752Z,8.20
2023-06-18T13:18:34.059Z,7.80
2023-06-18T13:21:04.120Z,9.00
2023-06-18T13:23:32.309Z,12.00
2023-06-18T13:26:00.790Z,11.00
2023-06-18T13:28:29.164Z,11.10
2023-06-18T13:30:58.696Z,13.20
2023-06-18T13:33:27.247Z,9.40
2023-06-18T13:35:55.512Z,6.20
2023-06-18T13:38:23.472Z,7.90
2023-06-18T13:40:52.890Z,7.10
2023-06-18T13:43:21.022Z,6.60
2023-06-18T13:45:49.286Z,7.80
2023-06-18T13:48:17.624Z,9.10
2023-06-18T13:50:45.892Z,7.80
2023-06-18T13:53:14.230Z,6.90
2023-06-18T13:55:42.827Z,7.50
2023-06-18T13:58:11.377Z,9.10
2023-06-18T14:00:39.781Z,7.20
2023-06-18T14:03:08.137Z,6.70
2023-06-18T14:05:37.420Z,7.80
2023-06-18T14:08:06.072Z,7.50
2023-06-18T14:10:34.318Z,7.00
2023-06-18T14:13:02.453Z,64.80
2023-06-18T14:15:30.774Z,23.30
2023-06-18T14:17:59.485Z,171.20
2023-06-18T14:20:27.654Z,13.30
2023-06-18T14:22:55.862Z,15.30
2023-06-18T14:25:24.386Z,25.70
2023-06-18T14:27:52.775Z,8.30
2023-06-18T14:30:21.252Z,7.50
2023-06-18T14:32:49.408Z,7.40
2023-06-18T14:35:17.780Z,6.80
2023-06-18T14:37:46.047Z,7.60
2023-06-18T14:40:14.737Z,8.20
2023-06-18T14:42:43.839Z,6.70
2023-06-18T14:45:12.451Z,7.00
2023-06-18T14:47:42.562Z,7.50
2023-06-18T14:50:11.968Z,7.80
2023-06-18T14:52:40.092Z,8.20
2023-06-18T14:55:08.865Z,10.10
2023-06-18T14:57:38.082Z,8.50
2023-06-18T15:00:07.917Z,8.70
2023-06-18T15:02:36.669Z,7.90
2023-06-18T15:05:05.988Z,7.90
2023-06-18T15:07:34.770Z,7.90
2023-06-18T15:10:02.753Z,6.50
2023-06-18T15:12:30.704Z,7.90
2023-06-18T15:14:59.159Z,7.40
2023-06-18T15:17:27.226Z,7.60
2023-06-18T15:19:58.772Z,7.90
2023-06-18T15:22:26.944Z,8.10
2023-06-18T15:24:55.574Z,10.20
2023-06-18T15:27:23.829Z,8.20
2023-06-18T15:29:53.439Z,10.40
2023-06-18T15:32:21.909Z,8.40
2023-06-18T15:34:50.441Z,8.70
2023-06-18T15:37:18.911Z,9.10
2023-06-18T15:39:50.004Z,14.80
2023-06-18T15:42:18.815Z,8.70
2023-06-18T15:44:47.048Z,9.70
2023-06-18T15:47:14.921Z,7.90
2023-06-18T15:49:42.972Z,6.70
2023-06-18T15:52:11.323Z,7.50
2023-06-18T15:54:39.282Z,9.80
2023-06-18T15:57:07.379Z,7.30
2023-06-18T15:59:35.385Z,8.30
2023-06-18T16:02:03.606Z,8.40
2023-06-18T16:04:31.819Z,7.80
2023-06-18T16:06:59.880Z,8.80
2023-06-18T16:09:27.914Z,7.90
2023-06-18T16:11:56.163Z,8.10
2023-06-18T16:14:24.168Z,7.60
2023-06-18T16:16:52.192Z,8.20
2023-06-18T16:19:20.330Z,9.80
2023-06-18T16:21:48.502Z,13.80
2023-06-18T16:24:17.763Z,8.80
2023-06-18T16:26:45.941Z,9.40
2023-06-18T16:29:15.403Z,11.90
2023-06-18T16:31:44.064Z,12.50
2023-06-18T16:34:12.221Z,9.50
2023-06-18T16:36:42.727Z,9.40
2023-06-18T16:39:12.122Z,8.50
2023-06-18T16:41:40.662Z,8.70
2023-06-18T16:44:08.739Z,8.40
2023-06-18T16:46:36.908Z,9.70
2023-06-18T16:49:05.113Z,8.70
2023-06-18T16:51:34.622Z,8.70
2023-06-18T16:54:04.957Z,8.20
2023-06-18T16:56:33.064Z,8.90
2023-06-18T16:59:01.492Z,8.60
2023-06-18T17:01:30.091Z,9.90
2023-06-18T17:03:59.815Z,11.20
2023-06-18T17:06:28.178Z,9.40
2023-06-18T17:08:56.998Z,9.50
2023-06-18T17:11:26.030Z,9.70
2023-06-18T17:13:55.121Z,9.50
2023-06-18T17:16:24.117Z,9.70
2023-06-18T17:18:52.468Z,10.10
2023-06-18T17:21:22.321Z,10.10
2023-06-18T17:23:51.499Z,10.40
2023-06-18T17:26:20.252Z,10.10
2023-06-18T17:28:49.165Z,10.60
2023-06-18T17:31:18.030Z,9.50
2023-06-18T17:33:46.740Z,11.10
2023-06-18T17:36:15.534Z,12.40
2023-06-18T17:38:46.248Z,9.10
2023-06-18T17:41:15.489Z,9.90
2023-06-18T17:43:45.041Z,10.40
2023-06-18T17:46:15.524Z,10.30
2023-06-18T17:48:46.986Z,9.80
2023-06-18T17:51:16.730Z,12.20
2023-06-18T17:53:48.694Z,10.60
2023-06-18T17:56:17.570Z,11.30
2023-06-18T17:58:46.546Z,10.60
2023-06-18T18:01:15.988Z,9.60
2023-06-18T18:03:45.730Z,10.20
2023-06-18T18:06:16.546Z,13.10
2023-06-18T18:08:50.187Z,10.60
2023-06-18T18:11:19.967Z,11.50
2023-06-18T18:13:49.274Z,11.30
2023-06-18T18:16:21.779Z,12.50
2023-06-18T18:18:51.641Z,11.80
2023-06-18T18:21:21.895Z,11.80
2023-06-18T18:23:51.181Z,11.60
2023-06-18T18:26:28.825Z,11.10
2023-06-18T18:29:03.653Z,10.40
2023-06-18T18:31:34.219Z,9.80
2023-06-18T18:34:04.317Z,10.50
2023-06-18T18:36:33.702Z,10.30
2023-06-18T18:39:04.353Z,11.20
2023-06-18T18:41:34.165Z,10.60
2023-06-18T18:44:04.076Z,11.30
2023-06-18T18:46:35.875Z,10.60
2023-06-18T18:49:07.409Z,10.50
2023-06-18T18:51:37.594Z,10.60
2023-06-18T18:54:08.819Z,10.60
2023-06-18T18:56:38.913Z,10.10
2023-06-18T18:59:09.794Z,10.10
2023-06-18T19:01:42.965Z,10.00
2023-06-18T19:04:13.153Z,11.20
2023-06-18T19:06:44.360Z,10.90
2023-06-18T19:09:15.356Z,10.30
2023-06-18T19:11:45.301Z,11.30
2023-06-18T19:14:15.092Z,10.20
2023-06-18T19:16:45.231Z,10.20
2023-06-18T19:19:18.533Z,10.40
2023-06-18T19:24:19.831Z,10.00
2023-06-18T19:26:52.880Z,10.00
2023-06-18T19:29:22.792Z,10.20
2023-06-18T19:31:55.716Z,10.40
2023-06-18T19:34:25.862Z,9.80
2023-06-18T19:36:56.064Z,9.30
2023-06-18T19:39:25.909Z,10.30
2023-06-18T19:41:55.791Z,9.10
2023-06-18T19:44:26.444Z,10.60
2023-06-18T19:46:58.569Z,9.90
2023-06-18T19:49:30.014Z,10.30
2023-06-18T19:51:59.711Z,10.80
2023-06-18T19:54:29.189Z,9.50
2023-06-18T19:57:00.665Z,9.50
2023-06-18T20:02:00.441Z,9.10
2023-06-18T20:04:31.228Z,9.10
2023-06-18T20:07:00.452Z,9.20
2023-06-18T20:09:34.860Z,9.40
2023-06-18T20:12:07.037Z,8.60
2023-06-18T20:14:36.003Z,9.50
2023-06-18T20:17:05.617Z,8.80
2023-06-18T20:19:34.665Z,8.80
2023-06-18T20:22:05.097Z,8.10
2023-06-18T20:24:34.379Z,8.90
2023-06-18T20:27:03.575Z,8.90
2023-06-18T20:29:33.243Z,8.80
2023-06-18T20:32:01.543Z,9.10
2023-06-18T20:34:29.558Z,9.50
2023-06-18T20:36:57.545Z,8.60
2023-06-18T20:39:25.641Z,8.60
2023-06-18T20:41:53.693Z,9.70
2023-06-18T20:44:21.547Z,9.60
2023-06-18T20:46:49.594Z,8.80
2023-06-18T20:49:20.792Z,9.60
2023-06-18T20:51:48.975Z,7.90
2023-06-18T20:54:16.976Z,8.40
2023-06-18T20:56:46.801Z,9.10
2023-06-18T20:59:14.703Z,9.60
2023-06-18T21:01:42.933Z,8.90
2023-06-18T21:04:10.907Z,9.10
2023-06-18T21:06:39.008Z,9.70
2023-06-18T21:09:07.017Z,9.00
2023-06-18T21:11:34.954Z,8.80
2023-06-18T21:14:02.960Z,9.10
2023-06-18T21:16:31.007Z,9.30
2023-06-18T21:18:58.900Z,8.60
2023-06-18T21:21:26.682Z,8.50
2023-06-18T21:23:54.677Z,9.30
2023-06-18T21:26:22.671Z,9.30
2023-06-18T21:28:50.467Z,8.00
2023-06-18T21:31:18.366Z,8.50
2023-06-18T21:33:47.948Z,10.00
2023-06-18T21:36:16.177Z,8.30
2023-06-18T21:38:44.041Z,8.20
2023-06-18T21:41:11.845Z,8.60
2023-06-18T21:43:39.728Z,8.00
2023-06-18T21:46:07.719Z,9.10
2023-06-18T21:48:35.690Z,8.30
2023-06-18T21:51:03.657Z,8.80
2023-06-18T21:53:31.619Z,10.10
2023-06-18T21:56:04.568Z,10.00
2023-06-18T21:58:35.301Z,8.80
2023-06-18T22:01:04.775Z,8.40
2023-06-18T22:03:32.850Z,8.90
2023-06-18T22:06:00.947Z,8.50
2023-06-18T22:08:49.871Z,8.30
2023-06-18T22:11:18.156Z,8.00
2023-06-18T22:13:46.495Z,9.30
2023-06-18T22:16:15.214Z,9.40
2023-06-18T22:18:43.141Z,9.20
2023-06-18T22:21:14.141Z,8.90
2023-06-18T22:23:42.056Z,9.20
2023-06-18T22:26:10.024Z,8.70
2023-06-18T22:28:37.900Z,7.80
2023-06-18T22:31:05.777Z,8.90
2023-06-18T22:33:33.688Z,8.30
2023-06-18T22:36:01.556Z,9.90
2023-06-18T22:38:30.266Z,9.50
2023-06-18T22:40:58.648Z,9.30
2023-06-18T22:43:26.579Z,7.80
2023-06-18T22:45:54.542Z,8.70
2023-06-18T22:48:22.541Z,9.70
2023-06-18T22:50:50.463Z,10.70
2023-06-18T22:53:18.429Z,9.40
2023-06-18T22:55:46.567Z,9.00
2023-06-18T22:58:14.393Z,9.30
2023-06-18T23:00:42.448Z,9.90
2023-06-18T23:03:10.627Z,9.50
2023-06-18T23:05:39.012Z,11.90
2023-06-18T23:08:06.975Z,10.00
2023-06-18T23:10:38.117Z,9.30
2023-06-18T23:13:06.288Z,10.20
2023-06-18T23:15:34.608Z,12.00
2023-06-18T23:18:03.054Z,9.90
2023-06-18T23:20:31.075Z,10.50
2023-06-18T23:22:58.882Z,10.60
2023-06-18T23:25:26.727Z,9.90
2023-06-18T23:27:54.630Z,10.20
2023-06-18T23:30:22.822Z,9.50
2023-06-18T23:32:50.974Z,10.00
2023-06-18T23:35:18.850Z,10.90
2023-06-18T23:37:46.657Z,12.10
2023-06-18T23:40:14.717Z,9.30
2023-06-18T23:42:42.572Z,10.10
2023-06-18T23:45:10.921Z,10.00
2023-06-18T23:47:38.734Z,8.30
2023-06-18T23:50:07.593Z,9.80
2023-06-18T23:52:35.451Z,9.90
2023-06-18T23:55:03.312Z,9.40
2023-06-18T23:57:31.203Z,9.40
2023-06-18T23:59:59.062Z,9.30
